createdAt,value
2022-10-12T00:00:49.836Z,101939.41
2022-10-12T00:03:18.098Z,101931.53
2022-10-12T00:05:46.196Z,101940.34
2022-10-12T00:08:18.919Z,101937.78
2022-10-12T00:10:46.704Z,101933.34
2022-10-12T00:13:14.502Z,101934.28
2022-10-12T00:15:43.598Z,101931.66
2022-10-12T00:18:11.386Z,101933.41
2022-10-12T00:20:39.105Z,101939.50
2022-10-12T00:23:07.852Z,101941.19
2022-10-12T00:25:37.436Z,101937.59
2022-10-12T00:28:06.342Z,101937.47
2022-10-12T00:30:34.832Z,101933.00
2022-10-12T00:33:04.028Z,101934.63
2022-10-12T00:35:31.869Z,101943.28
2022-10-12T00:37:59.613Z,101935.25
2022-10-12T00:40:27.499Z,101943.03
2022-10-12T00:42:55.272Z,101950.91
2022-10-12T00:45:25.965Z,101944.56
2022-10-12T00:47:57.901Z,101941.53
2022-10-12T00:50:30.549Z,101946.44
2022-10-12T00:53:03.912Z,101952.38
2022-10-12T00:55:35.727Z,101949.53
2022-10-12T00:58:05.342Z,101941.50
2022-10-12T01:00:33.189Z,101950.06
2022-10-12T01:03:01.246Z,101947.19
2022-10-12T01:05:30.417Z,101944.38
2022-10-12T01:07:59.790Z,101943.47
2022-10-12T01:10:27.763Z,101946.94
2022-10-12T01:12:55.987Z,101942.53
2022-10-12T01:15:28.978Z,101947.72
2022-10-12T01:18:04.986Z,101945.03
2022-10-12T01:20:55.355Z,101947.59
2022-10-12T01:23:49.502Z,101955.47
2022-10-12T01:26:40.376Z,101955.28
2022-10-12T01:29:23.421Z,101956.06
2022-10-12T01:31:59.022Z,101953.28
2022-10-12T01:34:34.304Z,101954.97
2022-10-12T01:37:09.411Z,101955.63
2022-10-12T01:39:42.340Z,101959.13
2022-10-12T01:42:15.967Z,101949.41
2022-10-12T01:44:43.787Z,101951.09
2022-10-12T01:47:12.943Z,101950.22
2022-10-12T01:49:40.835Z,101944.88
2022-10-12T01:52:37.230Z,101943.91
2022-10-12T01:55:23.754Z,101935.03
2022-10-12T01:58:04.751Z,101931.53
2022-10-12T02:00:42.470Z,101936.63
2022-10-12T02:03:20.973Z,101936.56
2022-10-12T02:05:54.375Z,101932.97
2022-10-12T02:08:26.578Z,101927.66
2022-10-12T02:11:01.892Z,101924.06
2022-10-12T02:13:34.432Z,101927.50
2022-10-12T02:16:07.707Z,101930.09
2022-10-12T02:18:41.191Z,101930.94
2022-10-12T02:21:12.783Z,101931.69
2022-10-12T02:23:40.744Z,101931.59
2022-10-12T02:26:09.650Z,101924.56
2022-10-12T02:28:39.503Z,101932.31
2022-10-12T02:31:16.331Z,101924.09
2022-10-12T02:33:52.305Z,101921.34
2022-10-12T02:36:27.825Z,101923.69
2022-10-12T02:39:02.806Z,101918.28
2022-10-12T02:41:36.926Z,101914.63
2022-10-12T02:44:08.820Z,101911.84
2022-10-12T02:46:37.635Z,101905.56
2022-10-12T02:49:08.002Z,101904.59
2022-10-12T02:51:37.136Z,101903.72
2022-10-12T02:54:05.026Z,101908.91
2022-10-12T02:56:32.825Z,101904.47
2022-10-12T02:59:00.635Z,101906.19
2022-10-12T03:01:28.425Z,101905.22
2022-10-12T03:03:56.224Z,101906.03
2022-10-12T03:06:25.382Z,101905.97
2022-10-12T03:08:53.317Z,101898.94
2022-10-12T03:11:21.059Z,101910.28
2022-10-12T03:13:48.820Z,101905.88
2022-10-12T03:16:16.558Z,101907.50
2022-10-12T03:18:44.314Z,101910.00
2022-10-12T03:21:12.211Z,101905.50
2022-10-12T03:23:41.653Z,101896.59
2022-10-12T03:26:09.897Z,101905.13
2022-10-12T03:28:37.794Z,101900.66
2022-10-12T03:31:05.771Z,101909.28
2022-10-12T03:33:33.561Z,101904.78
2022-10-12T03:36:01.319Z,101903.69
2022-10-12T03:38:29.122Z,101903.53
2022-10-12T03:41:01.753Z,101899.94
2022-10-12T03:43:32.102Z,101902.50
2022-10-12T03:45:59.957Z,101897.16
2022-10-12T03:48:27.811Z,101899.66
2022-10-12T03:50:55.595Z,101903.03
2022-10-12T03:53:23.392Z,101895.97
2022-10-12T03:55:51.141Z,101903.84
2022-10-12T03:58:20.204Z,101902.00
2022-10-12T04:00:47.984Z,101903.66
2022-10-12T04:03:15.840Z,101910.47
2022-10-12T04:05:43.568Z,101899.84
2022-10-12T04:08:11.388Z,101898.03
2022-10-12T04:10:39.092Z,101897.97
2022-10-12T04:13:06.814Z,101895.25
2022-10-12T04:15:35.915Z,101895.25
2022-10-12T04:18:03.708Z,101895.19
2022-10-12T04:20:31.895Z,101895.78
2022-10-12T04:22:59.723Z,101893.97
2022-10-12T04:25:30.144Z,101892.13
2022-10-12T04:27:58.411Z,101885.00
2022-10-12T04:30:26.282Z,101887.63
2022-10-12T04:32:55.384Z,101892.81
2022-10-12T04:35:23.164Z,101890.94
2022-10-12T04:37:51.435Z,101896.09
2022-10-12T04:40:19.215Z,101892.44
2022-10-12T04:42:46.946Z,101904.59
2022-10-12T04:45:15.153Z,101896.56
2022-10-12T04:47:42.970Z,101890.34
2022-10-12T04:50:12.213Z,101899.09
2022-10-12T04:52:40.081Z,101898.06
2022-10-12T04:55:09.082Z,101890.13
2022-10-12T04:57:37.154Z,101891.84
2022-10-12T05:00:06.161Z,101890.03
2022-10-12T05:02:33.970Z,101892.56
2022-10-12T05:05:01.731Z,101889.00
2022-10-12T05:07:30.847Z,101895.97
2022-10-12T05:09:58.960Z,101900.25
2022-10-12T05:12:26.769Z,101898.44
2022-10-12T05:14:54.559Z,101889.69
2022-10-12T05:17:22.287Z,101886.03
2022-10-12T05:19:50.054Z,101890.47
2022-10-12T05:22:17.760Z,101884.28
2022-10-12T05:24:51.315Z,101889.50
2022-10-12T05:27:21.302Z,101887.69
2022-10-12T05:29:49.103Z,101892.94
2022-10-12T05:32:17.170Z,101889.44
2022-10-12T05:34:44.942Z,101887.63
2022-10-12T05:37:12.891Z,101895.41
2022-10-12T05:39:40.852Z,101891.91
2022-10-12T05:42:10.087Z,101891.09
2022-10-12T05:44:37.876Z,101887.50
2022-10-12T05:47:05.742Z,101891.09
2022-10-12T05:49:33.514Z,101891.91
2022-10-12T05:52:01.364Z,101891.09
2022-10-12T05:54:29.205Z,101891.97
2022-10-12T05:56:57.254Z,101902.38
2022-10-12T05:59:26.452Z,101899.75
2022-10-12T06:01:54.415Z,101888.38
2022-10-12T06:04:22.319Z,101899.75
2022-10-12T06:06:50.122Z,101894.59
2022-10-12T06:09:17.943Z,101887.53
2022-10-12T06:11:45.755Z,101891.09
2022-10-12T06:14:14.731Z,101899.94
2022-10-12T06:16:43.875Z,101890.25
2022-10-12T06:19:11.871Z,101899.03
2022-10-12T06:21:39.704Z,101901.75
2022-10-12T06:24:07.771Z,101901.78
2022-10-12T06:26:35.636Z,101910.66
2022-10-12T06:29:03.422Z,101908.13
2022-10-12T06:31:32.440Z,101896.78
2022-10-12T06:34:01.611Z,101909.25
2022-10-12T06:36:29.470Z,101915.44
2022-10-12T06:38:57.287Z,101914.69
2022-10-12T06:41:25.457Z,101906.09
2022-10-12T06:43:53.361Z,101912.38
2022-10-12T06:46:21.173Z,101912.59
2022-10-12T06:48:48.914Z,101905.78
2022-10-12T06:51:18.072Z,101905.00
2022-10-12T06:53:45.988Z,101902.63
2022-10-12T06:56:14.066Z,101910.72
2022-10-12T06:58:42.130Z,101903.91
2022-10-12T07:01:11.026Z,101905.00
2022-10-12T07:03:38.947Z,101906.22
2022-10-12T07:06:08.679Z,101907.41
2022-10-12T07:08:38.318Z,101911.19
2022-10-12T07:11:08.441Z,101915.06
2022-10-12T07:13:37.108Z,101911.09
2022-10-12T07:16:05.412Z,101908.06
2022-10-12T07:18:33.525Z,101909.38
2022-10-12T07:21:02.711Z,101916.63
2022-10-12T07:23:32.311Z,101911.81
2022-10-12T07:26:01.490Z,101911.25
2022-10-12T07:28:29.958Z,101915.13
2022-10-12T07:31:02.116Z,101907.56
2022-10-12T07:33:33.107Z,101910.56
2022-10-12T07:36:21.358Z,101911.00
2022-10-12T07:38:49.307Z,101907.09
2022-10-12T07:41:18.783Z,101906.66
2022-10-12T07:43:46.622Z,101915.00
2022-10-12T07:46:14.525Z,101905.78
2022-10-12T07:48:48.942Z,101907.06
2022-10-12T07:51:17.677Z,101914.56
2022-10-12T07:53:45.659Z,101911.47
2022-10-12T07:56:15.937Z,101913.72
2022-10-12T07:58:49.645Z,101913.09
2022-10-12T08:01:18.905Z,101916.06
2022-10-12T08:03:46.953Z,101912.03
2022-10-12T08:06:17.611Z,101907.19
2022-10-12T08:08:45.976Z,101905.00
2022-10-12T08:11:15.913Z,101902.81
2022-10-12T08:13:45.887Z,101900.69
2022-10-12T08:16:16.339Z,101904.75
2022-10-12T08:18:44.454Z,101897.44
2022-10-12T08:21:14.403Z,101905.09
2022-10-12T08:23:44.447Z,101892.44
2022-10-12T08:26:13.361Z,101900.09
2022-10-12T08:28:41.469Z,101904.16
2022-10-12T08:31:12.833Z,101894.91
2022-10-12T08:33:40.884Z,101894.53
2022-10-12T08:36:09.258Z,101906.50
2022-10-12T08:38:38.876Z,101899.97
2022-10-12T08:41:20.897Z,101889.88
2022-10-12T08:43:59.462Z,101892.22
2022-10-12T08:46:30.179Z,101895.44
2022-10-12T08:49:02.799Z,101889.78
2022-10-12T08:51:34.394Z,101882.38
2022-10-12T08:54:07.903Z,101881.13
2022-10-12T08:56:36.257Z,101878.91
2022-10-12T08:59:04.634Z,101881.84
2022-10-12T09:01:38.528Z,101871.56
2022-10-12T09:04:18.112Z,101877.97
2022-10-12T09:06:50.760Z,101895.75
2022-10-12T09:09:33.627Z,101885.34
2022-10-12T09:12:19.565Z,101896.31
2022-10-12T09:14:48.898Z,101886.06
2022-10-12T09:17:27.668Z,101879.41
2022-10-12T09:20:03.785Z,101881.50
2022-10-12T09:22:32.623Z,101888.94
2022-10-12T09:25:01.353Z,101883.91
2022-10-12T09:27:33.195Z,101887.69
2022-10-12T09:30:05.815Z,101894.19
2022-10-12T09:32:49.222Z,101890.91
2022-10-12T09:35:17.982Z,101888.53
2022-10-12T09:37:56.967Z,101889.63
2022-10-12T09:40:27.759Z,101892.47
2022-10-12T09:42:59.459Z,101880.28
2022-10-12T09:45:36.136Z,101874.25
2022-10-12T09:48:13.606Z,101878.94
2022-10-12T09:50:44.897Z,101880.88
2022-10-12T09:53:16.233Z,101887.31
2022-10-12T09:55:54.837Z,101875.94
2022-10-12T09:58:23.243Z,101875.13
2022-10-12T10:01:12.430Z,101879.66
2022-10-12T10:03:41.567Z,101882.44
2022-10-12T10:06:09.677Z,101878.97
2022-10-12T10:08:42.105Z,101875.50
2022-10-12T10:11:16.833Z,101874.69
2022-10-12T10:13:49.842Z,101871.13
2022-10-12T10:16:18.311Z,101865.00
2022-10-12T10:18:50.390Z,101861.47
2022-10-12T10:21:28.029Z,101861.56
2022-10-12T10:23:58.015Z,101861.59
2022-10-12T10:26:27.143Z,101861.63
2022-10-12T10:28:58.886Z,101862.59
2022-10-12T10:31:29.537Z,101854.63
2022-10-12T10:34:20.008Z,101852.88
2022-10-12T10:36:50.230Z,101849.34
2022-10-12T10:39:22.731Z,101847.59
2022-10-12T10:41:51.431Z,101850.28
2022-10-12T10:44:28.758Z,101842.28
2022-10-12T10:46:59.567Z,101844.09
2022-10-12T10:49:37.306Z,101836.06
2022-10-12T10:52:06.869Z,101837.84
2022-10-12T10:54:38.809Z,101831.63
2022-10-12T10:57:13.573Z,101829.84
2022-10-12T10:59:48.248Z,101825.38
2022-10-12T11:02:23.044Z,101829.81
2022-10-12T11:04:58.070Z,101835.19
2022-10-12T11:07:31.129Z,101819.13
2022-10-12T11:10:02.258Z,101819.97
2022-10-12T11:12:33.032Z,101811.00
2022-10-12T11:15:08.232Z,101820.78
2022-10-12T11:17:42.115Z,101816.22
2022-10-12T11:20:35.374Z,101809.91
2022-10-12T11:23:10.842Z,101813.44
2022-10-12T11:25:49.186Z,101802.66
2022-10-12T11:28:17.710Z,101792.81
2022-10-12T11:30:51.507Z,101797.19
2022-10-12T11:33:24.984Z,101798.81
2022-10-12T11:35:56.120Z,101798.69
2022-10-12T11:38:29.779Z,101790.50
2022-10-12T11:41:18.975Z,101786.75
2022-10-12T11:43:56.381Z,101777.59
2022-10-12T11:46:31.832Z,101776.53
2022-10-12T11:49:03.926Z,101774.47
2022-10-12T11:51:33.061Z,101768.00
2022-10-12T11:54:07.658Z,101771.47
2022-10-12T11:56:40.635Z,101759.91
2022-10-12T11:59:19.995Z,101765.97
2022-10-12T12:01:56.931Z,101764.84
2022-10-12T12:04:46.365Z,101760.16
2022-10-12T12:07:42.086Z,101760.75
2022-10-12T12:10:47.241Z,101755.97
2022-10-12T12:13:22.936Z,101744.97
2022-10-12T12:16:31.706Z,101740.28
2022-10-12T12:19:41.954Z,101735.44
2022-10-12T12:22:28.633Z,101741.63
2022-10-12T12:25:15.165Z,101747.72
2022-10-12T12:27:44.766Z,101735.72
2022-10-12T12:30:38.268Z,101730.78
2022-10-12T12:33:26.524Z,101728.72
2022-10-12T12:35:57.853Z,101732.09
2022-10-12T12:38:28.869Z,101726.41
2022-10-12T12:41:19.921Z,101718.34
2022-10-12T12:43:59.270Z,101722.84
2022-10-12T12:47:40.346Z,101709.78
2022-10-12T12:50:02.994Z,101706.78
2022-10-12T12:52:34.243Z,101709.22
2022-10-12T12:55:37.386Z,101694.03
2022-10-12T12:58:33.165Z,101703.47
2022-10-12T13:01:26.748Z,101698.66
2022-10-12T13:04:16.393Z,101697.50
2022-10-12T13:07:33.900Z,101689.22
2022-10-12T13:10:14.562Z,101687.09
2022-10-12T13:12:57.637Z,101686.81
2022-10-12T13:15:38.479Z,101676.66
2022-10-12T13:18:46.397Z,101687.28
2022-10-12T13:21:19.531Z,101675.44
2022-10-12T13:23:50.177Z,101676.56
2022-10-12T13:26:23.843Z,101677.47
2022-10-12T13:28:53.397Z,101681.50
2022-10-12T13:31:27.087Z,101675.28
2022-10-12T13:34:00.932Z,101666.13
2022-10-12T13:36:31.590Z,101665.84
2022-10-12T13:39:01.985Z,101669.09
2022-10-12T13:41:31.380Z,101665.22
2022-10-12T13:44:00.872Z,101655.00
2022-10-12T13:46:43.531Z,101651.81
2022-10-12T13:49:15.607Z,101649.56
2022-10-12T13:51:45.846Z,101652.19
2022-10-12T13:54:19.305Z,101649.31
2022-10-12T13:56:49.839Z,101644.03
2022-10-12T13:59:20.944Z,101640.47
2022-10-12T14:01:52.619Z,101639.44
2022-10-12T14:04:21.060Z,101639.44
2022-10-12T14:06:56.348Z,101635.78
2022-10-12T14:09:26.779Z,101643.06
2022-10-12T14:11:56.541Z,101636.03
2022-10-12T14:14:32.799Z,101635.19
2022-10-12T14:17:02.107Z,101628.28
2022-10-12T14:19:36.724Z,101622.16
2022-10-12T14:22:04.853Z,101621.31
2022-10-12T14:24:36.554Z,101620.81
2022-10-12T14:27:06.104Z,101608.59
2022-10-12T14:29:36.753Z,101616.72
2022-10-12T14:32:07.586Z,101613.97
2022-10-12T14:34:40.394Z,101611.19
2022-10-12T14:37:22.529Z,101604.41
2022-10-12T14:39:52.358Z,101610.16
2022-10-12T14:42:22.024Z,101608.41
2022-10-12T14:44:50.714Z,101613.06
2022-10-12T14:47:23.113Z,101603.66
2022-10-12T14:49:54.554Z,101613.78
2022-10-12T14:52:24.996Z,101612.97
2022-10-12T14:54:53.661Z,101610.47
2022-10-12T14:57:22.765Z,101615.06
2022-10-12T14:59:51.054Z,101604.50
2022-10-12T15:02:22.249Z,101602.78
2022-10-12T15:04:50.182Z,101605.66
2022-10-12T15:07:20.779Z,101606.75
2022-10-12T15:09:48.919Z,101601.50
2022-10-12T15:12:18.944Z,101598.25
2022-10-12T15:14:47.211Z,101592.22
2022-10-12T15:17:20.280Z,101592.34
2022-10-12T15:19:49.244Z,101594.25
2022-10-12T15:22:19.430Z,101588.19
2022-10-12T15:24:47.587Z,101583.81
2022-10-12T15:27:15.860Z,101582.13
2022-10-12T15:29:44.247Z,101586.72
2022-10-12T15:32:13.884Z,101580.56
2022-10-12T15:34:43.038Z,101575.31
2022-10-12T15:37:10.817Z,101581.66
2022-10-12T15:39:38.617Z,101587.09
2022-10-12T15:42:06.465Z,101581.88
2022-10-12T15:44:40.454Z,101577.56
2022-10-12T15:47:10.394Z,101582.19
2022-10-12T15:49:38.585Z,101578.75
2022-10-12T15:52:10.882Z,101569.06
2022-10-12T15:54:38.722Z,101574.56
2022-10-12T15:57:07.213Z,101573.84
2022-10-12T15:59:35.137Z,101573.97
2022-10-12T16:02:02.893Z,101567.81
2022-10-12T16:04:30.668Z,101557.25
2022-10-12T16:07:01.296Z,101561.81
2022-10-12T16:09:30.387Z,101551.22
2022-10-12T16:11:58.113Z,101552.22
2022-10-12T16:14:25.913Z,101550.53
2022-10-12T16:16:53.729Z,101555.09
2022-10-12T16:19:21.515Z,101547.16
2022-10-12T16:21:49.579Z,101549.91
2022-10-12T16:24:17.917Z,101549.09
2022-10-12T16:26:47.394Z,101550.03
2022-10-12T16:29:15.117Z,101560.78
2022-10-12T16:34:16.141Z,101548.44
2022-10-12T16:36:44.018Z,101540.44
2022-10-12T16:39:11.807Z,101543.16
2022-10-12T16:41:39.547Z,101537.00
2022-10-12T16:44:08.672Z,101538.81
2022-10-12T16:46:37.001Z,101525.50
2022-10-12T16:49:04.810Z,101525.53
2022-10-12T16:51:32.565Z,101527.31
2022-10-12T16:54:00.829Z,101529.09
2022-10-12T16:56:28.614Z,101533.53
2022-10-12T16:58:56.402Z,101529.97
2022-10-12T17:01:25.540Z,101536.19
2022-10-12T17:03:54.577Z,101531.72
2022-10-12T17:06:22.434Z,101541.50
2022-10-12T17:08:50.225Z,101535.28
2022-10-12T17:11:17.999Z,101535.25
2022-10-12T17:13:49.107Z,101532.59
2022-10-12T17:16:36.798Z,101530.78
2022-10-12T17:19:05.945Z,101525.44
2022-10-12T17:21:34.367Z,101536.97
2022-10-12T17:24:03.116Z,101528.09
2022-10-12T17:26:30.931Z,101529.84
2022-10-12T17:28:58.933Z,101529.81
2022-10-12T17:31:27.046Z,101527.09
2022-10-12T17:33:55.271Z,101533.31
2022-10-12T17:36:28.077Z,101528.84
2022-10-12T17:38:57.252Z,101533.22
2022-10-12T17:41:25.525Z,101533.19
2022-10-12T17:43:53.691Z,101529.59
2022-10-12T17:46:22.836Z,101531.34
2022-10-12T17:48:51.105Z,101531.34
2022-10-12T17:51:19.401Z,101537.47
2022-10-12T17:53:48.724Z,101535.69
2022-10-12T17:56:18.511Z,101539.19
2022-10-12T17:58:46.356Z,101540.94
2022-10-12T18:01:16.376Z,101543.53
2022-10-12T18:03:47.457Z,101544.41
2022-10-12T18:06:17.601Z,101543.50
2022-10-12T18:08:45.560Z,101542.53
2022-10-12T18:11:16.731Z,101530.09
2022-10-12T18:13:48.298Z,101530.09
2022-10-12T18:16:17.719Z,101523.81
2022-10-12T18:18:45.845Z,101522.94
2022-10-12T18:21:14.751Z,101520.25
2022-10-12T18:23:42.655Z,101519.34
2022-10-12T18:26:12.836Z,101528.22
2022-10-12T18:28:42.472Z,101526.41
2022-10-12T18:31:17.815Z,101521.06
2022-10-12T18:33:45.994Z,101524.63
2022-10-12T18:36:14.758Z,101521.97
2022-10-12T18:38:42.791Z,101516.63
2022-10-12T18:41:12.797Z,101521.94
2022-10-12T18:43:42.335Z,101529.03
2022-10-12T18:46:12.273Z,101519.25
2022-10-12T18:48:40.976Z,101513.03
2022-10-12T18:51:15.473Z,101519.19
2022-10-12T18:53:43.439Z,101511.22
2022-10-12T18:56:11.309Z,101509.41
2022-10-12T18:58:39.506Z,101507.59
2022-10-12T19:01:11.643Z,101507.56
2022-10-12T19:03:40.135Z,101507.53
2022-10-12T19:06:10.867Z,101498.66
2022-10-12T19:08:38.882Z,101506.59
2022-10-12T19:11:08.296Z,101500.34
2022-10-12T19:13:36.442Z,101500.31
2022-10-12T19:16:06.163Z,101498.53
2022-10-12T19:18:35.710Z,101494.97
2022-10-12T19:21:05.658Z,101502.00
2022-10-12T19:23:34.018Z,101495.75
2022-10-12T19:26:06.277Z,101501.91
2022-10-12T19:28:34.696Z,101499.19
2022-10-12T19:31:03.254Z,101499.13
2022-10-12T19:33:31.152Z,101500.81
2022-10-12T19:36:03.408Z,101495.44
2022-10-12T19:38:31.285Z,101491.00
2022-10-12T19:40:59.404Z,101497.13
2022-10-12T19:43:27.602Z,101499.75
2022-10-12T19:45:55.586Z,101495.31
2022-10-12T19:48:23.547Z,101491.75
2022-10-12T19:51:00.309Z,101488.19
2022-10-12T19:53:28.329Z,101483.75
2022-10-12T19:56:00.674Z,101485.53
2022-10-12T19:58:29.100Z,101489.03
2022-10-12T20:01:01.623Z,101485.50
2022-10-12T20:03:30.166Z,101483.69
2022-10-12T20:05:58.606Z,101486.34
2022-10-12T20:08:28.008Z,101496.03
2022-10-12T20:10:55.866Z,101494.25
2022-10-12T20:13:23.788Z,101498.63
2022-10-12T20:15:53.970Z,101496.81
2022-10-12T20:18:27.329Z,101485.25
2022-10-12T20:20:55.761Z,101483.44
2022-10-12T20:23:23.811Z,101490.47
2022-10-12T20:25:54.606Z,101494.81
2022-10-12T20:28:22.888Z,101493.84
2022-10-12T20:30:51.248Z,101499.09
2022-10-12T20:33:19.448Z,101501.66
2022-10-12T20:35:48.487Z,101491.81
2022-10-12T20:38:16.892Z,101490.00
2022-10-12T20:40:45.930Z,101489.88
2022-10-12T20:43:15.500Z,101488.00
2022-10-12T20:45:43.712Z,101494.09
2022-10-12T20:48:11.652Z,101494.88
2022-10-12T20:50:39.501Z,101495.66
2022-10-12T20:53:07.498Z,101494.69
2022-10-12T20:55:35.896Z,101492.81
2022-10-12T20:58:03.926Z,101500.63
2022-10-12T21:00:33.395Z,101493.50
2022-10-12T21:03:01.327Z,101491.63
2022-10-12T21:05:29.357Z,101480.06
2022-10-12T21:07:57.253Z,101484.41
2022-10-12T21:10:25.544Z,101471.91
2022-10-12T21:12:53.520Z,101475.38
2022-10-12T21:15:21.478Z,101475.28
2022-10-12T21:17:50.727Z,101476.13
2022-10-12T21:20:18.643Z,101470.69
2022-10-12T21:22:46.880Z,101465.31
2022-10-12T21:25:15.010Z,101465.28
2022-10-12T21:27:42.875Z,101466.03
2022-10-12T21:30:11.599Z,101471.25
2022-10-12T21:32:39.550Z,101466.78
2022-10-12T21:35:09.586Z,101467.63
2022-10-12T21:37:37.486Z,101460.47
2022-10-12T21:40:06.324Z,101464.81
2022-10-12T21:42:34.169Z,101466.53
2022-10-12T21:45:02.164Z,101463.81
2022-10-12T21:47:30.000Z,101460.19
2022-10-12T21:49:57.979Z,101461.88
2022-10-12T21:52:27.264Z,101466.22
2022-10-12T21:54:55.155Z,101467.00
2022-10-12T21:57:23.049Z,101464.31
2022-10-12T21:59:50.972Z,101467.72
2022-10-12T22:02:19.270Z,101460.69
2022-10-12T22:04:47.447Z,101455.31
2022-10-12T22:07:15.887Z,101461.44
2022-10-12T22:09:46.316Z,101460.44
2022-10-12T22:12:14.233Z,101457.75
2022-10-12T22:14:43.113Z,101460.31
2022-10-12T22:17:12.348Z,101452.31
2022-10-12T22:19:46.199Z,101453.13
2022-10-12T22:22:14.093Z,101451.28
2022-10-12T22:24:42.082Z,101458.28
2022-10-12T22:27:11.369Z,101451.16
2022-10-12T22:29:39.388Z,101445.78
2022-10-12T22:32:07.385Z,101449.22
2022-10-12T22:34:35.230Z,101457.09
2022-10-12T22:37:03.216Z,101443.84
2022-10-12T22:39:31.055Z,101446.44
2022-10-12T22:41:58.905Z,101456.09
2022-10-12T22:44:28.236Z,101452.47
2022-10-12T22:46:56.273Z,101447.13
2022-10-12T22:49:24.144Z,101441.81
2022-10-12T22:51:52.051Z,101451.41
2022-10-12T22:54:19.981Z,101444.38
2022-10-12T22:56:47.898Z,101443.44
2022-10-12T22:59:16.736Z,101441.66
2022-10-12T23:01:46.168Z,101448.78
2022-10-12T23:04:14.016Z,101437.31
2022-10-12T23:06:42.172Z,101447.94
2022-10-12T23:09:09.980Z,101440.94
2022-10-12T23:11:37.962Z,101434.78
2022-10-12T23:14:05.914Z,101428.63
2022-10-12T23:16:34.272Z,101434.78
2022-10-12T23:19:05.262Z,101426.03
2022-10-12T23:21:35.327Z,101427.78
2022-10-12T23:24:04.983Z,101427.78
2022-10-12T23:26:33.235Z,101422.50
2022-10-12T23:29:01.379Z,101420.78
2022-10-12T23:31:32.330Z,101412.00
2022-10-12T23:34:04.786Z,101422.66
2022-10-12T23:36:35.103Z,101427.97
2022-10-12T23:39:05.304Z,101426.22
2022-10-12T23:41:33.214Z,101425.38
2022-10-12T23:44:01.100Z,101417.44
2022-10-12T23:46:29.038Z,101414.81
2022-10-12T23:48:58.587Z,101418.31
2022-10-12T23:51:27.840Z,101407.72
2022-10-12T23:53:55.610Z,101401.59
2022-10-12T23:56:23.494Z,101405.91
2022-10-12T23:58:51.319Z,101416.44
